Meteógrafos Informações Meteorológicas em tempo real
Aeroporto internacional Salgado Filho
15-12-2019 22:56

Temperatura atual: 25 graus 77 F    Umidade relativa: 78 %
Velocidade do vento: 10 nós 18 Km/h    Direção: 320 graus NW
Ajuste do altímetro ..: 1006 HPA
Visibilidade: Ótima    Tempo presente: Poucas nuvens esparsas

Observação
Poucas nuvens a 4000 Pés., Nuvens esparsas a 10000 Pés.
Data Hora BRTTempo°CUmidadePressãoVentoVisib.
15/12 - 22:56   Poucas nuvens esparsas 25° 78% 1006 Noroeste/18 km/h OK
15/12 - 21:56   Poucas nuvens esparsas 25° 83% 1005 Norte-noroeste/18 km/h 9999
15/12 - 20:56   Trovoada recente 26° 78% 1004 Norte/23 km/h OK
15/12 - 19:56   Trovoadas 25° 83% 1003 Norte/19 km/h OK
15/12 - 18:56   Trovoadas 24° 94% 1004 Norte/14 km/h 8000
15/12 - 17:55   Chovendo 24° 88% 1005 Oeste-sudoeste/36 km/h 3000
15/12 - 16:56   Parcialmente Nublado 36° 37% 1002 Norte/23 km/h 9999
15/12 - 15:56   Parcialmente Nublado 35° 36% 1003 Norte-noroeste/21 km/h OK
15/12 - 14:56   Muitas Nuvens 34° 38% 1005 Norte-noroeste/27 km/h OK
15/12 - 13:56   Poucas nuvens esparsas 34° 41% 1006 Norte/25 km/h 9999
15/12 - 12:56   Parcialmente Nublado 33° 43% 1007 Norte/18 km/h OK
15/12 - 11:56   Céu Limpo 32° 46% 1008 Norte/14 km/h CAVO
15/12 - 10:56   Céu Limpo 29° 58% 1008 Leste/10 km/h CAVO
15/12 - 09:56   Céu Limpo 29° 54% 1009 Este-nordeste/16 km/h OK
15/12 - 08:56   Céu Limpo 27° 65% 1010 Leste/10 km/h OK
15/12 - 07:56   Poucas nuvens esparsas 25° 78% 1010 Sul-sudeste/5 km/h 9999
15/12 - 06:56   Poucas nuvens esparsas 22° 94% 1010 /3 km/h OK
15/12 - 05:56   Não Disponível 22° 94% 1010 /3 km/h OK
15/12 - 04:56   Não Disponível 22° 94% 1009 Leste/5 km/h OK
15/12 - 03:56   Não Disponível 23° 88% 1010 Nordeste/7 km/h OK
15/12 - 02:56   Poucas nuvens esparsas 23° 88% 1011 Nordeste/5 km/h 9999
15/12 - 01:56   Poucas nuvens esparsas 23° 88% 1011 Leste/12 km/h OK
15/12 - 00:56   Poucas nuvens esparsas 23° 88% 1012 Leste/9 km/h OK
14/12 - 23:56   Poucas nuvens esparsas 23° 88% 1012 Leste/12 km/h OK

Termo de Uso  |   Links Úteis  |   Imprensa  |  Anuncie  |  Fale Conosco  |  Versão Celular  |   Política de Privacidade

Apolo11.com - Todos os direitos reservados - 2000 - 2019

"Existem velas que iluminam tudo, menos o próprio candelabro" - Hebbel